M I D A S
Marine Information and Data Acquisition System
Tripno 1099 of the Zeeleeuw from 2006-03-30 06:32:14 to 2006-03-30 10:47:52
Back to CruiseResearch ActivitiesStationsMapUnderway DataData graphs

EquipmentUnitsComment
TimeDGPSUTC
LatitudeDGPSDM.mWGS84
LongitudeDGPSDM.mWGS84
HeadingGyrodeg 
SOGDGPSknotsSpeed over ground
COGDGPSdegCourse over ground
DepthEcho soundermeters200 kHz
Missing or incorrect values are displayed as -999
Navigation data collected by the RV Zeeleeuw from 2006-03-30 06:32:05 to 2006-03-30 11:00:34
Time Latitude Longitude Heading SOG COG Depth
2006-03-30 06:33:11 51°13.613 2°56.051 116.8 2.4 299 -999
2006-03-30 06:34:10 51°13.632 2°55.982 108.8 2.1 289 -999
2006-03-30 06:35:10 51°13.64 2°55.949 115 2.2 293 -999
2006-03-30 06:36:10 51°13.667 2°55.866 123.5 4.4 301 -999
2006-03-30 06:37:10 51°13.7 2°55.776 114.3 3.3 297 4.7
2006-03-30 06:38:11 51°13.716 2°55.748 77.2 1.4 46 -999
2006-03-30 06:39:10 51°13.717 2°55.74 36 1.9 227 -999
2006-03-30 06:40:11 51°13.722 2°55.721 346.2 2.6 337 -999
2006-03-30 06:41:11 51°13.797 2°55.657 338.2 6.6 333 -999
2006-03-30 06:42:10 51°13.908 2°55.578 340.4 7.5 337 -999
2006-03-30 06:43:10 51°14.018 2°55.5 341.1 7 337 -999
2006-03-30 06:44:11 51°14.128 2°55.416 336.9 7.4 332 -999
2006-03-30 06:45:11 51°14.238 2°55.296 324.4 8.5 319 -999
2006-03-30 06:46:10 51°14.336 2°55.124 315.2 9.3 310 -999
2006-03-30 06:47:10 51°14.458 2°54.949 328.2 10.7 319 8
2006-03-30 06:48:10 51°14.617 2°54.776 350.5 11.9 341 7.2
2006-03-30 06:49:10 51°14.805 2°54.658 347.4 12.2 338 7.1
2006-03-30 06:50:10 51°14.994 2°54.532 343.7 12.3 335 6.8
2006-03-30 06:51:10 51°15.177 2°54.408 347.1 11.9 338 6.3
2006-03-30 06:52:10 51°15.37 2°54.308 347.5 12.4 339 7.1
2006-03-30 06:53:10 51°15.561 2°54.161 340.9 13 332 8.1
2006-03-30 06:54:10 51°15.755 2°54.009 342.9 12.9 334 7.9
2006-03-30 06:55:10 51°15.945 2°53.844 341.6 12.9 331 9.2
2006-03-30 06:56:10 51°16.134 2°53.684 339.8 13 331 9.5
2006-03-30 06:57:10 51°16.321 2°53.508 338.2 13 329 9.6
2006-03-30 06:58:10 51°16.504 2°53.324 336.2 13 328 9.8
2006-03-30 06:59:10 51°16.684 2°53.133 336.1 12.9 326 9.3
2006-03-30 07:00:10 51°16.863 2°52.953 336.9 12.1 329 6.8
2006-03-30 07:01:10 51°17.037 2°52.783 339.5 12.6 333 7.9
2006-03-30 07:02:10 51°17.23 2°52.647 342.6 12.4 336 7.6
2006-03-30 07:03:10 51°17.424 2°52.51 345.8 12.8 337 8.2
2006-03-30 07:04:10 51°17.624 2°52.395 350.1 12.5 345 8.5
2006-03-30 07:05:10 51°17.83 2°52.344 2.9 12.5 356 8.4
2006-03-30 07:06:10 51°18.04 2°52.324 5.8 12.6 353 8.4
2006-03-30 07:07:10 51°18.25 2°52.32 8.6 12.3 2 9.1
2006-03-30 07:08:10 51°18.459 2°52.314 6.3 12.4 358 9.2
2006-03-30 07:09:10 51°18.671 2°52.299 6.8 12.7 359 10.3
2006-03-30 07:10:10 51°18.883 2°52.282 7.2 12.8 358 11.4
2006-03-30 07:11:10 51°19.094 2°52.266 5.2 12.7 358 11.8
2006-03-30 07:12:10 51°19.306 2°52.247 6.3 12.8 359 13
2006-03-30 07:13:10 51°19.516 2°52.228 5.7 12.6 356 13.7
2006-03-30 07:14:10 51°19.724 2°52.212 5.2 12.6 354 14.1
2006-03-30 07:15:10 51°19.934 2°52.19 6.5 12.7 358 14.6
2006-03-30 07:16:10 51°20.145 2°52.182 10.7 12.5 2 13.8
2006-03-30 07:17:10 51°20.354 2°52.183 10.5 12.7 -999 12.3
2006-03-30 07:18:10 51°20.563 2°52.178 7.3 12.5 357 12.9
2006-03-30 07:19:10 51°20.772 2°52.179 10.5 12.7 1 12.3
2006-03-30 07:20:10 51°20.98 2°52.191 12.5 12.3 4 13.2
2006-03-30 07:21:10 51°21.184 2°52.242 18 12.4 12 14.9
2006-03-30 07:22:10 51°21.385 2°52.308 22.2 12.3 12 16.6
2006-03-30 07:23:10 51°21.587 2°52.381 22.3 12.5 15 18.4
2006-03-30 07:24:10 51°21.783 2°52.471 24.2 12.3 16 20.5
2006-03-30 07:25:10 51°21.978 2°52.568 23.7 12.6 17 22
2006-03-30 07:26:10 51°22.177 2°52.66 24.3 12.4 18 21.9
2006-03-30 07:27:10 51°22.377 2°52.751 21.8 12.5 11 21.8
2006-03-30 07:28:10 51°22.576 2°52.848 25.6 12.5 19 21.1
2006-03-30 07:29:10 51°22.775 2°52.944 25.5 12.8 13 21
2006-03-30 07:30:10 51°22.974 2°53.048 24.2 12.7 16 20.9
2006-03-30 07:31:10 51°23.174 2°53.147 22.9 12.3 18 19.2
2006-03-30 07:32:10 51°23.37 2°53.237 22.5 12 13 18.8
2006-03-30 07:33:10 51°23.563 2°53.335 21.7 12.1 13 19.4
2006-03-30 07:34:10 51°23.756 2°53.437 23.2 12.2 19 19.5
2006-03-30 07:35:09 51°23.946 2°53.526 22.6 12.1 13 18.7
2006-03-30 07:36:10 51°24.139 2°53.63 24.7 12.3 14 18.5
2006-03-30 07:37:10 51°24.333 2°53.701 19.1 12.4 6 16.1
2006-03-30 07:38:10 51°24.531 2°53.762 18.1 12.3 10 16
2006-03-30 07:39:10 51°24.729 2°53.824 17.9 12.2 9 17.1
2006-03-30 07:40:10 51°24.924 2°53.895 18.7 12.2 14 19
2006-03-30 07:41:10 51°25.123 2°53.959 18.8 12.4 17 19.3
2006-03-30 07:42:10 51°25.324 2°54.026 18.8 12.6 7 19.2
2006-03-30 07:43:10 51°25.521 2°54.096 17.2 11.7 15 18.8
2006-03-30 07:44:10 51°25.722 2°54.156 15.2 12.4 8 19.8
2006-03-30 07:45:10 51°25.922 2°54.221 15.9 12.4 10 20.3
2006-03-30 07:46:10 51°26.121 2°54.274 15.2 11.9 9 21.3
2006-03-30 07:47:10 51°26.316 2°54.344 20.6 11.9 19 22.4
2006-03-30 07:48:10 51°26.512 2°54.41 14.2 11.5 12 24
2006-03-30 07:49:10 51°26.706 2°54.479 19.9 11.1 12 20.7
2006-03-30 07:50:10 51°26.896 2°54.548 18.8 11.5 8 24.6
2006-03-30 07:51:10 51°27.087 2°54.622 22.8 11.4 25 27.8
2006-03-30 07:52:10 51°27.28 2°54.692 18.8 11.9 9 27.7
2006-03-30 07:53:10 51°27.477 2°54.759 19 12.3 8 27.8
2006-03-30 07:54:10 51°27.673 2°54.825 17.7 12 8 26.6
2006-03-30 07:55:10 51°27.866 2°54.893 18.1 11.9 8 25.4
2006-03-30 07:56:10 51°28.06 2°54.955 19.8 12.1 8 22.7
2006-03-30 07:57:10 51°28.25 2°55.033 19.3 11.9 8 21.3
2006-03-30 07:58:10 51°28.44 2°55.107 17.4 12.3 7 20.5
2006-03-30 07:59:10 51°28.627 2°55.191 23.9 11.8 10 21.1
2006-03-30 08:00:10 51°28.816 2°55.279 23.9 11.8 19 22.1
2006-03-30 08:01:10 51°29.005 2°55.362 22.5 11.6 15 23
2006-03-30 08:02:10 51°29.192 2°55.456 21 12.2 10 24.2
2006-03-30 08:03:10 51°29.38 2°55.543 24.6 12 19 25.3
2006-03-30 08:04:10 51°29.573 2°55.633 21.9 12 12 26.3
2006-03-30 08:05:10 51°29.764 2°55.728 23.4 12 21 27.7
2006-03-30 08:06:10 51°29.96 2°55.809 20.7 11.9 19 29.2
2006-03-30 08:07:10 51°30.153 2°55.895 22.5 12.5 16 29.8
2006-03-30 08:08:10 51°30.347 2°55.97 21.9 12 12 30.4
2006-03-30 08:09:10 51°30.54 2°56.048 20.2 12.2 2 31.8
2006-03-30 08:10:10 51°30.731 2°56.135 24.2 11.7 21 33
2006-03-30 08:11:10 51°30.92 2°56.217 24 11.2 15 32.5
2006-03-30 08:12:10 51°31.107 2°56.294 23.2 11.8 8 32.7
2006-03-30 08:13:10 51°31.296 2°56.373 21.4 12.2 24 26.6
2006-03-30 08:14:10 51°31.485 2°56.457 22.8 11.6 19 18.8
2006-03-30 08:15:10 51°31.669 2°56.547 24 11.5 20 17
2006-03-30 08:16:10 51°31.852 2°56.631 23.4 11.3 17 14.8
2006-03-30 08:17:10 51°32.028 2°56.748 31.6 11.3 28 18.7
2006-03-30 08:18:11 51°32.196 2°56.912 32.5 12.2 25 18.9
2006-03-30 08:19:10 51°32.359 2°57.065 31.8 11.8 30 19.3
2006-03-30 08:20:10 51°32.523 2°57.22 33.8 11.4 29 19
2006-03-30 08:21:10 51°32.688 2°57.385 40.9 11.8 34 19.2
2006-03-30 08:22:10 51°32.819 2°57.612 46.4 10.8 45 18.5
2006-03-30 08:23:10 51°32.947 2°57.844 49.4 11.7 54 16.8
2006-03-30 08:24:10 51°33.086 2°58.067 45.1 11.5 47 17.7
2006-03-30 08:25:09 51°33.228 2°58.279 46.1 12.7 43 16.4
2006-03-30 08:26:10 51°33.371 2°58.502 42.8 11.5 45 18.3
2006-03-30 08:27:09 51°33.515 2°58.707 44.3 11.4 45 17.7
2006-03-30 08:28:10 51°33.659 2°58.935 48.9 12.1 44 16.6
2006-03-30 08:29:10 51°33.8 2°59.159 45.7 11.5 43 17.1
2006-03-30 08:30:10 51°33.944 2°59.369 44.2 11.6 48 18
2006-03-30 08:31:10 51°34.083 2°59.593 48.2 11.8 47 17.8
2006-03-30 08:32:10 51°34.225 2°59.819 47.9 12.4 41 18.8
2006-03-30 08:33:10 51°34.365 3°0.028 42.8 11.3 38 19.6
2006-03-30 08:34:10 51°34.502 3°0.244 45.2 11.3 46 19.5
2006-03-30 08:35:10 51°34.672 3°0.355 9.1 11.2 2 20.2
2006-03-30 08:36:10 51°34.855 3°0.245 339.2 12.4 328 22.5
2006-03-30 08:37:10 51°34.982 2°59.984 306.8 12.8 292 26.1
2006-03-30 08:38:10 51°34.997 2°59.646 274.3 12.7 263 27.3
2006-03-30 08:39:10 51°34.917 2°59.321 244.4 13.3 237 27.4
2006-03-30 08:40:11 51°34.783 2°59.042 237.4 13.5 232 27
2006-03-30 08:41:10 51°34.662 2°58.788 240.3 12.5 234 26.9
2006-03-30 08:42:10 51°34.525 2°58.496 236.7 13.8 230 26.6
2006-03-30 08:43:10 51°34.401 2°58.272 236.8 8.9 228 27.2
2006-03-30 08:44:10 51°34.291 2°58.076 234.4 10.1 226 25
2006-03-30 08:45:10 51°34.182 2°57.874 236.8 9.9 230 24.9
2006-03-30 08:46:10 51°34.071 2°57.669 237.2 10.5 230 25.3
2006-03-30 08:47:11 51°33.956 2°57.457 236.6 9.7 230 -999
2006-03-30 08:48:10 51°33.845 2°57.242 238.7 11.3 232 27.5
2006-03-30 08:49:10 51°33.732 2°57.012 239.5 10.8 232 27.9
2006-03-30 08:50:10 51°33.624 2°56.784 239.2 11.2 231 28.2
2006-03-30 08:51:10 51°33.509 2°56.567 238.3 10.2 229 23.6
2006-03-30 08:52:10 51°33.389 2°56.346 236.6 11.3 229 25.1
2006-03-30 08:53:10 51°33.263 2°56.122 233.2 11.4 226 26.6
2006-03-30 08:54:10 51°33.123 2°55.924 227.8 10.5 221 -999
2006-03-30 08:55:10 51°32.988 2°55.725 229.8 11.3 222 24.6
2006-03-30 08:56:10 51°32.851 2°55.525 228.6 11.5 222 23.7
2006-03-30 08:57:10 51°32.717 2°55.325 228.7 11.1 222 23.8
2006-03-30 08:58:10 51°32.589 2°55.131 229.3 10.6 223 22.5
2006-03-30 08:59:10 51°32.458 2°54.943 228.9 10.6 222 21.9
2006-03-30 09:00:10 51°32.31 2°54.78 215.7 10.3 211 22.2
2006-03-30 09:01:10 51°32.157 2°54.625 218.4 11.4 214 20.3
2006-03-30 09:02:10 51°32.009 2°54.476 216.2 10 212 21.1
2006-03-30 09:03:10 51°31.863 2°54.327 218.2 10.5 213 -999
2006-03-30 09:04:10 51°31.708 2°54.161 218.7 11.4 215 20.3
2006-03-30 09:05:10 51°31.553 2°53.999 217.2 10.6 209 20.1
2006-03-30 09:06:10 51°31.413 2°53.852 218.9 10.8 214 18.8
2006-03-30 09:07:10 51°31.257 2°53.708 207.8 10.1 204 20
2006-03-30 09:08:11 51°31.097 2°53.596 206 9.5 202 -999
2006-03-30 09:09:10 51°30.942 2°53.487 208.6 10.7 204 18
2006-03-30 09:10:10 51°30.78 2°53.366 209.4 10.7 207 18.7
2006-03-30 09:11:10 51°30.614 2°53.233 210.4 10.9 207 24.5
2006-03-30 09:12:10 51°30.451 2°53.1 210 10.8 206 27
2006-03-30 09:13:10 51°30.285 2°53.013 198.4 10.9 197 30.2
2006-03-30 09:14:10 51°30.107 2°52.929 198.2 11.1 197 29.6
2006-03-30 09:15:10 51°29.932 2°52.844 198.7 11.1 197 29.1
2006-03-30 09:16:10 51°29.763 2°52.757 198.7 10.4 200 29.7
2006-03-30 09:17:10 51°29.594 2°52.657 198.8 10.8 198 30.8
2006-03-30 09:18:10 51°29.421 2°52.556 200.1 11.2 201 30.8
2006-03-30 09:19:10 51°29.246 2°52.455 199.7 11.3 201 29.1
2006-03-30 09:20:10 51°29.07 2°52.357 196.9 10.8 197 29.3
2006-03-30 09:21:10 51°28.898 2°52.26 199.5 11.3 201 29.4
2006-03-30 09:22:10 51°28.721 2°52.16 198.4 11.2 198 27.9
2006-03-30 09:23:10 51°28.546 2°52.065 200.5 10.5 197 -999
2006-03-30 09:24:10 51°28.377 2°51.974 195.9 10.7 198 26.3
2006-03-30 09:25:10 51°28.206 2°51.877 199.7 11 199 25.7
2006-03-30 09:26:10 51°28.034 2°51.782 199.5 11.2 200 23.9
2006-03-30 09:27:10 51°27.859 2°51.686 198.8 11.3 200 22.1
2006-03-30 09:28:10 51°27.682 2°51.591 198.2 10.7 199 -999
2006-03-30 09:29:10 51°27.51 2°51.495 199.5 11 200 21.2
2006-03-30 09:30:10 51°27.338 2°51.405 198.6 10.9 200 19.7
2006-03-30 09:31:10 51°27.162 2°51.305 200.3 11.1 200 21.6
2006-03-30 09:32:10 51°26.982 2°51.206 199.5 11.4 199 19.4
2006-03-30 09:33:10 51°26.804 2°51.106 199.9 11.5 198 22.7
2006-03-30 09:34:10 51°26.626 2°51.009 199.7 11.2 201 23.4
2006-03-30 09:35:10 51°26.449 2°50.911 198.4 11.3 198 23.2
2006-03-30 09:36:10 51°26.273 2°50.817 198.9 11.2 201 23.5
2006-03-30 09:37:10 51°26.098 2°50.719 199.4 11.4 199 23.5
2006-03-30 09:38:10 51°25.922 2°50.617 200.1 11.3 200 23
2006-03-30 09:39:10 51°25.747 2°50.518 199 11.2 200 23.3
2006-03-30 09:40:10 51°25.572 2°50.418 200.3 11.1 201 23.1
2006-03-30 09:41:10 51°25.396 2°50.316 199.6 11.3 200 23.6
2006-03-30 09:42:10 51°25.215 2°50.207 199.5 11.7 200 23.1
2006-03-30 09:43:10 51°25.041 2°50.113 198.3 11.1 200 22.5
2006-03-30 09:44:10 51°24.864 2°50.011 199.7 11.3 201 23.1
2006-03-30 09:45:10 51°24.69 2°49.916 198.1 10.9 199 22
2006-03-30 09:46:10 51°24.514 2°49.81 200.5 11.2 200 22.2
2006-03-30 09:47:10 51°24.342 2°49.71 199.3 11 198 22.4
2006-03-30 09:48:10 51°24.166 2°49.607 199.8 11.4 200 22.7
2006-03-30 09:49:10 51°23.989 2°49.504 199 11.3 200 22.1
2006-03-30 09:50:10 51°23.812 2°49.401 199.8 11.1 197 21.8
2006-03-30 09:51:10 51°23.638 2°49.309 198.1 11.1 198 22.5
2006-03-30 09:52:10 51°23.456 2°49.211 199.4 11.7 200 20.6
2006-03-30 09:53:10 51°23.274 2°49.111 198.6 11.6 197 20.6
2006-03-30 09:54:10 51°23.089 2°49.014 199.6 11.9 199 19
2006-03-30 09:55:10 51°22.906 2°48.921 197.8 11.5 196 18.1
2006-03-30 09:56:10 51°22.721 2°48.827 199.6 11.8 198 13.8
2006-03-30 09:57:11 51°22.532 2°48.741 198.8 10.8 195 -999
2006-03-30 09:58:10 51°22.359 2°48.655 199.5 11.2 197 20
2006-03-30 09:59:10 51°22.174 2°48.558 200.9 12 199 24.3
2006-03-30 10:00:10 51°21.985 2°48.461 198.8 11.8 198 23.5
2006-03-30 10:01:10 51°21.799 2°48.37 200.3 11.8 199 24.2
2006-03-30 10:02:10 51°21.612 2°48.271 200.5 11.7 199 23.5
2006-03-30 10:03:10 51°21.424 2°48.191 187.8 11.7 187 22.9
2006-03-30 10:04:10 51°21.228 2°48.2 178.2 11.9 178 21.1
2006-03-30 10:05:10 51°21.032 2°48.222 172.3 12 167 20
2006-03-30 10:06:10 51°20.852 2°48.361 146.5 12.2 147 20
2006-03-30 10:07:10 51°20.688 2°48.548 144.9 11.9 147 22.1
2006-03-30 10:08:10 51°20.519 2°48.729 145.1 12.8 144 22.8
2006-03-30 10:09:10 51°20.343 2°48.921 142.6 12.9 143 22.9
2006-03-30 10:10:10 51°20.168 2°49.105 148.2 12.2 151 22.6
2006-03-30 10:11:10 51°20.012 2°49.281 145 11 146 20.3
2006-03-30 10:12:10 51°19.863 2°49.451 144.3 11.2 141 18
2006-03-30 10:13:10 51°19.715 2°49.623 143.2 10.9 143 16.5
2006-03-30 10:14:10 51°19.566 2°49.795 142.9 11.1 142 14.1
2006-03-30 10:15:10 51°19.42 2°49.973 143 11.2 147 13.1
2006-03-30 10:16:10 51°19.271 2°50.15 143.5 11.3 143 12
2006-03-30 10:17:10 51°19.12 2°50.325 144.2 11.3 148 13.2
2006-03-30 10:18:10 51°18.969 2°50.503 143.6 11.3 147 14.6
2006-03-30 10:19:10 51°18.817 2°50.681 142.1 11.5 149 15.1
2006-03-30 10:20:10 51°18.66 2°50.85 146.5 11.3 149 14.8
2006-03-30 10:21:10 51°18.507 2°51.027 140.7 11.8 134 14.3
2006-03-30 10:22:10 51°18.351 2°51.196 145.1 11.2 149 13.5
2006-03-30 10:23:10 51°18.195 2°51.372 145.2 11.5 141 12.6
2006-03-30 10:24:10 51°18.04 2°51.548 144.7 11.5 144 11.4
2006-03-30 10:25:10 51°17.888 2°51.729 145.5 11.3 144 10.9
2006-03-30 10:26:10 51°17.735 2°51.91 144.2 11.5 142 11
2006-03-30 10:27:10 51°17.577 2°52.078 148.9 11.6 147 10.9
2006-03-30 10:28:10 51°17.406 2°52.212 156.7 11.6 155 11
2006-03-30 10:29:10 51°17.232 2°52.34 157.3 11.6 157 10.7
2006-03-30 10:30:10 51°17.06 2°52.474 155.9 11.7 154 10.6
2006-03-30 10:31:10 51°16.887 2°52.61 157.8 11.5 157 10.5
2006-03-30 10:32:10 51°16.714 2°52.746 156.1 11.9 154 11.3
2006-03-30 10:33:10 51°16.543 2°52.889 156.5 11.8 151 12.3
2006-03-30 10:34:10 51°16.373 2°53.034 155.3 11.7 153 12.6
2006-03-30 10:35:10 51°16.203 2°53.178 157.6 11.6 151 12.3
2006-03-30 10:36:10 51°16.036 2°53.322 156.8 11.5 150 12.5
2006-03-30 10:37:10 51°15.869 2°53.466 158.1 11.2 153 12.1
2006-03-30 10:38:10 51°15.704 2°53.612 156.1 11.5 150 11.7
2006-03-30 10:39:10 51°15.539 2°53.755 158.6 11.2 152 11
2006-03-30 10:40:10 51°15.376 2°53.893 155.3 11 151 10.7
2006-03-30 10:41:10 51°15.214 2°54.035 156 11.1 152 10.1
2006-03-30 10:42:10 51°15.05 2°54.176 158.2 11.1 156 9.8
2006-03-30 10:43:10 51°14.891 2°54.324 153.2 11.1 149 10.2
2006-03-30 10:44:10 51°14.74 2°54.492 148.6 11.1 144 10.8
2006-03-30 10:45:10 51°14.595 2°54.681 145.8 11.3 136 10.6
2006-03-30 10:46:10 51°14.459 2°54.888 138.6 11.3 130 11.1
2006-03-30 10:47:11 51°14.348 2°55.129 132.3 10.8 127 11.3
2006-03-30 10:48:11 51°14.227 2°55.317 142.9 9.4 141 -999
2006-03-30 10:49:11 51°14.116 2°55.413 157.6 6.8 154 -999
2006-03-30 10:50:11 51°14.024 2°55.483 158 5.7 154 -999
2006-03-30 10:51:10 51°13.946 2°55.544 157.6 5.1 154 -999
2006-03-30 10:52:11 51°13.87 2°55.603 156.5 5 152 -999
2006-03-30 10:53:11 51°13.799 2°55.666 151 4.9 147 -999
2006-03-30 10:54:11 51°13.737 2°55.751 137.9 4.9 135 -999
2006-03-30 10:55:11 51°13.683 2°55.849 131.2 5 128 -999
2006-03-30 10:56:10 51°13.643 2°55.942 125.5 3.9 123 10.6
2006-03-30 10:57:10 51°13.617 2°56.025 117.4 3.2 114 10.6
2006-03-30 10:58:10 51°13.603 2°56.082 117.8 1.3 106 -999
2006-03-30 10:59:14 51°13.598 2°56.094 130.9 0.2 119 -999
2006-03-30 11:00:14 51°13.599 2°56.094 125.5 0.1 172 -999